sensor_id;sensor_type;location;lat;lon;timestamp;P1;P2;P0
55549;PMS7003;41397;49.972;18.944;2022-09-16T00:01:56;16;16;13
55549;PMS7003;41397;49.972;18.944;2022-09-16T00:04:58;13;13;7
55549;PMS7003;41397;49.972;18.944;2022-09-16T00:08:02;9;9;6
55549;PMS7003;41397;49.972;18.944;2022-09-16T00:11:03;12;12;9
55549;PMS7003;41397;49.972;18.944;2022-09-16T00:14:05;11;11;8
55549;PMS7003;41397;49.972;18.944;2022-09-16T00:17:06;11;11;8
55549;PMS7003;41397;49.972;18.944;2022-09-16T00:20:09;10;10;7
55549;PMS7003;41397;49.972;18.944;2022-09-16T00:23:11;11;10;8
55549;PMS7003;41397;49.972;18.944;2022-09-16T00:26:13;9;9;5
55549;PMS7003;41397;49.972;18.944;2022-09-16T00:29:14;10;10;8
55549;PMS7003;41397;49.972;18.944;2022-09-16T00:32:17;9;9;6
55549;PMS7003;41397;49.972;18.944;2022-09-16T00:35:19;11;11;9
55549;PMS7003;41397;49.972;18.944;2022-09-16T00:38:22;13;13;10
55549;PMS7003;41397;49.972;18.944;2022-09-16T00:41:27;12;12;11
55549;PMS7003;41397;49.972;18.944;2022-09-16T00:47:48;7;7;5
55549;PMS7003;41397;49.972;18.944;2022-09-16T00:50:56;9;9;7
55549;PMS7003;41397;49.972;18.944;2022-09-16T00:54:03;10;10;7
55549;PMS7003;41397;49.972;18.944;2022-09-16T00:57:09;12;12;8
55549;PMS7003;41397;49.972;18.944;2022-09-16T01:00:14;12;12;9
55549;PMS7003;41397;49.972;18.944;2022-09-16T01:03:17;12;12;10
55549;PMS7003;41397;49.972;18.944;2022-09-16T01:06:19;11;11;8
55549;PMS7003;41397;49.972;18.944;2022-09-16T01:09:22;15;15;9
55549;PMS7003;41397;49.972;18.944;2022-09-16T01:12:26;9;9;8
55549;PMS7003;41397;49.972;18.944;2022-09-16T01:22:10;16;16;12
55549;PMS7003;41397;49.972;18.944;2022-09-16T01:28:43;17;17;12
55549;PMS7003;41397;49.972;18.944;2022-09-16T01:47:59;23;22;15
55549;PMS7003;41397;49.972;18.944;2022-09-16T01:51:18;23;23;15
55549;PMS7003;41397;49.972;18.944;2022-09-16T01:54:27;17;17;12
55549;PMS7003;41397;49.972;18.944;2022-09-16T02:00:55;19;19;14
55549;PMS7003;41397;49.972;18.944;2022-09-16T02:04:04;12;12;7
55549;PMS7003;41397;49.972;18.944;2022-09-16T02:07:11;22;21;15
55549;PMS7003;41397;49.972;18.944;2022-09-16T02:16:41;21;21;15
55549;PMS7003;41397;49.972;18.944;2022-09-16T02:23:04;16;16;11
55549;PMS7003;41397;49.972;18.944;2022-09-16T02:26:13;22;19;13
55549;PMS7003;41397;49.972;18.944;2022-09-16T02:29:23;14;14;11
55549;PMS7003;41397;49.972;18.944;2022-09-16T02:32:28;18;18;13
55549;PMS7003;41397;49.972;18.944;2022-09-16T02:35:34;18;18;14
55549;PMS7003;41397;49.972;18.944;2022-09-16T02:38:42;13;13;10
55549;PMS7003;41397;49.972;18.944;2022-09-16T02:41:51;11;11;7
55549;PMS7003;41397;49.972;18.944;2022-09-16T02:44:56;15;15;11
55549;PMS7003;41397;49.972;18.944;2022-09-16T02:48:08;16;16;11
55549;PMS7003;41397;49.972;18.944;2022-09-16T02:51:20;16;16;9
55549;PMS7003;41397;49.972;18.944;2022-09-16T02:57:36;13;13;11
55549;PMS7003;41397;49.972;18.944;2022-09-16T03:00:39;13;13;8
55549;PMS7003;41397;49.972;18.944;2022-09-16T03:03:46;15;15;11
55549;PMS7003;41397;49.972;18.944;2022-09-16T03:06:47;8;8;5
55549;PMS7003;41397;49.972;18.944;2022-09-16T03:09:49;17;17;11
55549;PMS7003;41397;49.972;18.944;2022-09-16T03:19:41;11;11;9
55549;PMS7003;41397;49.972;18.944;2022-09-16T03:32:18;12;12;8
55549;PMS7003;41397;49.972;18.944;2022-09-16T03:38:39;11;11;9
55549;PMS7003;41397;49.972;18.944;2022-09-16T03:41:43;20;20;11
55549;PMS7003;41397;49.972;18.944;2022-09-16T03:44:45;17;17;14
55549;PMS7003;41397;49.972;18.944;2022-09-16T03:47:48;15;15;10
55549;PMS7003;41397;49.972;18.944;2022-09-16T03:50:50;14;14;11
55549;PMS7003;41397;49.972;18.944;2022-09-16T03:53:52;17;17;11
55549;PMS7003;41397;49.972;18.944;2022-09-16T03:56:54;11;11;8
55549;PMS7003;41397;49.972;18.944;2022-09-16T03:59:55;18;18;11
55549;PMS7003;41397;49.972;18.944;2022-09-16T04:02:57;16;16;13
55549;PMS7003;41397;49.972;18.944;2022-09-16T04:05:59;21;21;14
55549;PMS7003;41397;49.972;18.944;2022-09-16T04:09:02;16;16;13
55549;PMS7003;41397;49.972;18.944;2022-09-16T04:12:05;15;15;13
55549;PMS7003;41397;49.972;18.944;2022-09-16T04:15:07;15;15;10
55549;PMS7003;41397;49.972;18.944;2022-09-16T04:18:09;17;17;12
55549;PMS7003;41397;49.972;18.944;2022-09-16T04:21:10;17;17;13
55549;PMS7003;41397;49.972;18.944;2022-09-16T04:24:11;13;13;13
55549;PMS7003;41397;49.972;18.944;2022-09-16T04:27:13;17;17;10
55549;PMS7003;41397;49.972;18.944;2022-09-16T04:30:14;18;18;12
55549;PMS7003;41397;49.972;18.944;2022-09-16T04:33:16;20;20;14
55549;PMS7003;41397;49.972;18.944;2022-09-16T04:36:18;16;16;11
55549;PMS7003;41397;49.972;18.944;2022-09-16T04:39:20;20;20;15
55549;PMS7003;41397;49.972;18.944;2022-09-16T04:42:22;18;18;14
55549;PMS7003;41397;49.972;18.944;2022-09-16T04:45:23;17;17;12
55549;PMS7003;41397;49.972;18.944;2022-09-16T04:48:24;14;14;9
55549;PMS7003;41397;49.972;18.944;2022-09-16T04:51:27;20;20;13
55549;PMS7003;41397;49.972;18.944;2022-09-16T04:54:30;16;14;9
55549;PMS7003;41397;49.972;18.944;2022-09-16T04:57:31;17;15;10
55549;PMS7003;41397;49.972;18.944;2022-09-16T05:00:33;15;15;11
55549;PMS7003;41397;49.972;18.944;2022-09-16T05:03:34;14;14;10
55549;PMS7003;41397;49.972;18.944;2022-09-16T05:06:36;13;13;10
55549;PMS7003;41397;49.972;18.944;2022-09-16T05:09:41;10;10;10
55549;PMS7003;41397;49.972;18.944;2022-09-16T05:12:42;9;9;6
55549;PMS7003;41397;49.972;18.944;2022-09-16T05:15:44;8;8;7
55549;PMS7003;41397;49.972;18.944;2022-09-16T05:18:45;9;9;8
55549;PMS7003;41397;49.972;18.944;2022-09-16T05:21:48;13;13;10
55549;PMS7003;41397;49.972;18.944;2022-09-16T05:24:49;14;14;9
55549;PMS7003;41397;49.972;18.944;2022-09-16T05:27:51;10;10;9
55549;PMS7003;41397;49.972;18.944;2022-09-16T05:30:52;15;15;12
55549;PMS7003;41397;49.972;18.944;2022-09-16T05:33:54;13;13;10
55549;PMS7003;41397;49.972;18.944;2022-09-16T05:37:00;11;11;7
55549;PMS7003;41397;49.972;18.944;2022-09-16T05:40:01;13;13;9
55549;PMS7003;41397;49.972;18.944;2022-09-16T05:43:03;11;11;9
55549;PMS7003;41397;49.972;18.944;2022-09-16T05:46:05;16;16;13
55549;PMS7003;41397;49.972;18.944;2022-09-16T05:49:07;9;9;7
55549;PMS7003;41397;49.972;18.944;2022-09-16T05:52:09;19;16;10
55549;PMS7003;41397;49.972;18.944;2022-09-16T05:55:10;20;20;16
55549;PMS7003;41397;49.972;18.944;2022-09-16T05:58:12;13;13;11
55549;PMS7003;41397;49.972;18.944;2022-09-16T06:01:14;12;12;9
55549;PMS7003;41397;49.972;18.944;2022-09-16T06:04:17;16;16;12
55549;PMS7003;41397;49.972;18.944;2022-09-16T06:07:19;16;16;11
55549;PMS7003;41397;49.972;18.944;2022-09-16T06:10:20;39;27;17
55549;PMS7003;41397;49.972;18.944;2022-09-16T06:13:22;25;24;16
55549;PMS7003;41397;49.972;18.944;2022-09-16T06:16:24;22;22;15
55549;PMS7003;41397;49.972;18.944;2022-09-16T06:19:27;17;17;14
55549;PMS7003;41397;49.972;18.944;2022-09-16T06:22:29;15;15;13
55549;PMS7003;41397;49.972;18.944;2022-09-16T06:25:30;12;12;9
55549;PMS7003;41397;49.972;18.944;2022-09-16T06:28:33;0;0;0
55549;PMS7003;41397;49.972;18.944;2022-09-16T06:31:35;8;8;6
55549;PMS7003;41397;49.972;18.944;2022-09-16T06:34:38;14;14;9
55549;PMS7003;41397;49.972;18.944;2022-09-16T06:37:39;11;11;9
55549;PMS7003;41397;49.972;18.944;2022-09-16T06:40:43;14;14;10
55549;PMS7003;41397;49.972;18.944;2022-09-16T06:43:44;7;7;6
55549;PMS7003;41397;49.972;18.944;2022-09-16T06:46:46;10;10;9
55549;PMS7003;41397;49.972;18.944;2022-09-16T06:49:47;8;8;7
55549;PMS7003;41397;49.972;18.944;2022-09-16T06:52:49;12;12;10
55549;PMS7003;41397;49.972;18.944;2022-09-16T06:55:51;14;14;10
55549;PMS7003;41397;49.972;18.944;2022-09-16T06:58:52;10;10;9
55549;PMS7003;41397;49.972;18.944;2022-09-16T07:01:55;7;7;6
55549;PMS7003;41397;49.972;18.944;2022-09-16T07:04:56;8;8;8
55549;PMS7003;41397;49.972;18.944;2022-09-16T07:07:58;6;6;4
55549;PMS7003;41397;49.972;18.944;2022-09-16T07:11:01;8;8;7
55549;PMS7003;41397;49.972;18.944;2022-09-16T07:14:04;6;6;5
55549;PMS7003;41397;49.972;18.944;2022-09-16T07:17:05;5;5;4
55549;PMS7003;41397;49.972;18.944;2022-09-16T07:20:08;13;13;10
55549;PMS7003;41397;49.972;18.944;2022-09-16T07:23:10;7;7;7
55549;PMS7003;41397;49.972;18.944;2022-09-16T07:26:12;6;6;5
55549;PMS7003;41397;49.972;18.944;2022-09-16T07:29:16;6;6;5
55549;PMS7003;41397;49.972;18.944;2022-09-16T07:32:20;3;3;2
55549;PMS7003;41397;49.972;18.944;2022-09-16T07:35:26;10;10;5
55549;PMS7003;41397;49.972;18.944;2022-09-16T07:38:28;6;6;5
55549;PMS7003;41397;49.972;18.944;2022-09-16T07:41:31;6;6;5
55549;PMS7003;41397;49.972;18.944;2022-09-16T07:44:34;6;6;5
55549;PMS7003;41397;49.972;18.944;2022-09-16T07:47:36;10;10;7
55549;PMS7003;41397;49.972;18.944;2022-09-16T07:50:37;4;4;3
55549;PMS7003;41397;49.972;18.944;2022-09-16T07:53:39;6;6;6
55549;PMS7003;41397;49.972;18.944;2022-09-16T07:56:41;7;7;6
55549;PMS7003;41397;49.972;18.944;2022-09-16T07:59:43;8;8;7
55549;PMS7003;41397;49.972;18.944;2022-09-16T08:02:45;2;2;2
55549;PMS7003;41397;49.972;18.944;2022-09-16T08:05:46;4;4;3
55549;PMS7003;41397;49.972;18.944;2022-09-16T08:08:49;6;6;6
55549;PMS7003;41397;49.972;18.944;2022-09-16T08:11:53;4;4;1
55549;PMS7003;41397;49.972;18.944;2022-09-16T08:14:54;6;6;4
55549;PMS7003;41397;49.972;18.944;2022-09-16T08:17:56;4;4;4
55549;PMS7003;41397;49.972;18.944;2022-09-16T08:20:58;4;4;4
55549;PMS7003;41397;49.972;18.944;2022-09-16T08:24:08;3;3;3
55549;PMS7003;41397;49.972;18.944;2022-09-16T08:27:15;5;5;3
55549;PMS7003;41397;49.972;18.944;2022-09-16T08:30:17;6;6;4
55549;PMS7003;41397;49.972;18.944;2022-09-16T08:33:19;2;2;2
55549;PMS7003;41397;49.972;18.944;2022-09-16T08:36:25;6;6;5
55549;PMS7003;41397;49.972;18.944;2022-09-16T08:39:27;2;2;1
55549;PMS7003;41397;49.972;18.944;2022-09-16T08:45:42;4;4;4
55549;PMS7003;41397;49.972;18.944;2022-09-16T08:49:00;3;3;2
55549;PMS7003;41397;49.972;18.944;2022-09-16T08:52:02;3;3;3
55549;PMS7003;41397;49.972;18.944;2022-09-16T08:55:11;4;4;3
55549;PMS7003;41397;49.972;18.944;2022-09-16T08:58:22;10;8;6
55549;PMS7003;41397;49.972;18.944;2022-09-16T09:04:50;7;7;6
55549;PMS7003;41397;49.972;18.944;2022-09-16T09:07:58;3;3;3
55549;PMS7003;41397;49.972;18.944;2022-09-16T09:11:09;7;7;5
55549;PMS7003;41397;49.972;18.944;2022-09-16T09:20:56;4;4;3
55549;PMS7003;41397;49.972;18.944;2022-09-16T09:27:30;3;3;2
55549;PMS7003;41397;49.972;18.944;2022-09-16T09:30:35;3;3;2
55549;PMS7003;41397;49.972;18.944;2022-09-16T09:43:42;7;7;7
55549;PMS7003;41397;49.972;18.944;2022-09-16T09:46:42;2;2;2
55549;PMS7003;41397;49.972;18.944;2022-09-16T09:49:55;2;2;2
55549;PMS7003;41397;49.972;18.944;2022-09-16T09:53:10;5;5;4
55549;PMS7003;41397;49.972;18.944;2022-09-16T09:56:17;4;4;4
55549;PMS7003;41397;49.972;18.944;2022-09-16T09:59:29;2;2;2
55549;PMS7003;41397;49.972;18.944;2022-09-16T10:02:35;3;3;3
55549;PMS7003;41397;49.972;18.944;2022-09-16T10:05:44;7;7;5
55549;PMS7003;41397;49.972;18.944;2022-09-16T10:08:47;3;3;3
55549;PMS7003;41397;49.972;18.944;2022-09-16T10:11:55;7;7;5
55549;PMS7003;41397;49.972;18.944;2022-09-16T10:14:57;2;2;2
55549;PMS7003;41397;49.972;18.944;2022-09-16T10:18:00;4;4;4
55549;PMS7003;41397;49.972;18.944;2022-09-16T10:21:19;4;4;3
55549;PMS7003;41397;49.972;18.944;2022-09-16T10:27:36;5;5;4
55549;PMS7003;41397;49.972;18.944;2022-09-16T10:33:52;6;6;5
55549;PMS7003;41397;49.972;18.944;2022-09-16T10:40:14;4;4;3
55549;PMS7003;41397;49.972;18.944;2022-09-16T10:43:18;6;6;5
55549;PMS7003;41397;49.972;18.944;2022-09-16T10:46:21;3;3;3
55549;PMS7003;41397;49.972;18.944;2022-09-16T10:49:32;5;5;4
55549;PMS7003;41397;49.972;18.944;2022-09-16T10:52:41;4;4;3
55549;PMS7003;41397;49.972;18.944;2022-09-16T10:55:54;2;2;2
55549;PMS7003;41397;49.972;18.944;2022-09-16T11:02:19;5;5;4
55549;PMS7003;41397;49.972;18.944;2022-09-16T11:08:55;7;7;5
55549;PMS7003;41397;49.972;18.944;2022-09-16T11:12:16;5;5;5
55549;PMS7003;41397;49.972;18.944;2022-09-16T11:18:39;1;1;0
55549;PMS7003;41397;49.972;18.944;2022-09-16T11:28:27;5;5;4
55549;PMS7003;41397;49.972;18.944;2022-09-16T11:47:49;1;1;1
55549;PMS7003;41397;49.972;18.944;2022-09-16T11:57:28;4;4;4
55549;PMS7003;41397;49.972;18.944;2022-09-16T12:00:35;2;2;2
55549;PMS7003;41397;49.972;18.944;2022-09-16T12:03:41;2;2;1
55549;PMS7003;41397;49.972;18.944;2022-09-16T12:10:07;2;2;2
55549;PMS7003;41397;49.972;18.944;2022-09-16T12:20:29;3;3;3
55549;PMS7003;41397;49.972;18.944;2022-09-16T12:26:10;4;4;3
55549;PMS7003;41397;49.972;18.944;2022-09-16T12:29:22;3;3;3
55549;PMS7003;41397;49.972;18.944;2022-09-16T12:32:36;5;5;4
55549;PMS7003;41397;49.972;18.944;2022-09-16T12:35:54;17;17;13
55549;PMS7003;41397;49.972;18.944;2022-09-16T12:39:02;6;6;5
55549;PMS7003;41397;49.972;18.944;2022-09-16T13:01:30;6;6;5
55549;PMS7003;41397;49.972;18.944;2022-09-16T13:04:44;4;4;3
55549;PMS7003;41397;49.972;18.944;2022-09-16T13:07:51;6;6;5
55549;PMS7003;41397;49.972;18.944;2022-09-16T13:11:38;7;7;6
55549;PMS7003;41397;49.972;18.944;2022-09-16T13:14:30;24;23;15
55549;PMS7003;41397;49.972;18.944;2022-09-16T13:20:36;4;4;3
55549;PMS7003;41397;49.972;18.944;2022-09-16T13:23:42;6;6;6
55549;PMS7003;41397;49.972;18.944;2022-09-16T13:26:47;4;4;4
55549;PMS7003;41397;49.972;18.944;2022-09-16T13:29:48;5;5;4
55549;PMS7003;41397;49.972;18.944;2022-09-16T13:36:03;3;3;2
55549;PMS7003;41397;49.972;18.944;2022-09-16T13:39:11;4;4;4
55549;PMS7003;41397;49.972;18.944;2022-09-16T13:42:18;3;3;3
55549;PMS7003;41397;49.972;18.944;2022-09-16T13:48:33;4;4;4
55549;PMS7003;41397;49.972;18.944;2022-09-16T13:51:45;7;7;7
55549;PMS7003;41397;49.972;18.944;2022-09-16T13:54:49;5;5;4
55549;PMS7003;41397;49.972;18.944;2022-09-16T14:01:10;4;4;4
55549;PMS7003;41397;49.972;18.944;2022-09-16T14:07:45;10;10;8
55549;PMS7003;41397;49.972;18.944;2022-09-16T14:11:00;7;7;6
55549;PMS7003;41397;49.972;18.944;2022-09-16T14:14:20;7;7;7
55549;PMS7003;41397;49.972;18.944;2022-09-16T14:17:25;6;6;5
55549;PMS7003;41397;49.972;18.944;2022-09-16T14:20:33;3;3;3
55549;PMS7003;41397;49.972;18.944;2022-09-16T14:23:34;7;7;6
55549;PMS7003;41397;49.972;18.944;2022-09-16T14:26:36;5;5;4
55549;PMS7003;41397;49.972;18.944;2022-09-16T14:29:37;5;5;4
55549;PMS7003;41397;49.972;18.944;2022-09-16T14:32:39;8;8;7
55549;PMS7003;41397;49.972;18.944;2022-09-16T14:35:42;3;3;3
55549;PMS7003;41397;49.972;18.944;2022-09-16T14:38:48;4;4;4
55549;PMS7003;41397;49.972;18.944;2022-09-16T14:41:59;5;5;4
55549;PMS7003;41397;49.972;18.944;2022-09-16T14:45:07;2;2;2
55549;PMS7003;41397;49.972;18.944;2022-09-16T14:48:17;2;2;2
55549;PMS7003;41397;49.972;18.944;2022-09-16T14:51:22;4;3;3
55549;PMS7003;41397;49.972;18.944;2022-09-16T14:54:27;12;12;9
55549;PMS7003;41397;49.972;18.944;2022-09-16T14:57:30;9;9;7
55549;PMS7003;41397;49.972;18.944;2022-09-16T15:00:39;7;7;6
55549;PMS7003;41397;49.972;18.944;2022-09-16T15:03:51;3;3;3
55549;PMS7003;41397;49.972;18.944;2022-09-16T15:06:58;4;4;3
55549;PMS7003;41397;49.972;18.944;2022-09-16T15:10:08;5;5;3
55549;PMS7003;41397;49.972;18.944;2022-09-16T15:16:29;1;1;1
55549;PMS7003;41397;49.972;18.944;2022-09-16T15:19:35;1;1;1
55549;PMS7003;41397;49.972;18.944;2022-09-16T15:22:40;4;4;4
55549;PMS7003;41397;49.972;18.944;2022-09-16T15:25:49;4;4;3
55549;PMS7003;41397;49.972;18.944;2022-09-16T15:28:57;3;3;2
55549;PMS7003;41397;49.972;18.944;2022-09-16T15:35:24;1;1;1
55549;PMS7003;41397;49.972;18.944;2022-09-16T15:38:31;3;3;2
55549;PMS7003;41397;49.972;18.944;2022-09-16T15:41:32;5;5;4
55549;PMS7003;41397;49.972;18.944;2022-09-16T15:44:34;2;2;2
55549;PMS7003;41397;49.972;18.944;2022-09-16T15:47:44;2;2;1
55549;PMS7003;41397;49.972;18.944;2022-09-16T15:50:53;3;3;2
55549;PMS7003;41397;49.972;18.944;2022-09-16T15:54:00;5;5;5
55549;PMS7003;41397;49.972;18.944;2022-09-16T16:03:56;5;5;4
55549;PMS7003;41397;49.972;18.944;2022-09-16T16:07:00;5;5;5
55549;PMS7003;41397;49.972;18.944;2022-09-16T16:13:16;2;2;2
55549;PMS7003;41397;49.972;18.944;2022-09-16T16:16:18;4;4;4
55549;PMS7003;41397;49.972;18.944;2022-09-16T16:19:20;4;4;4
55549;PMS7003;41397;49.972;18.944;2022-09-16T16:22:21;5;5;4
55549;PMS7003;41397;49.972;18.944;2022-09-16T16:25:23;5;5;3
55549;PMS7003;41397;49.972;18.944;2022-09-16T16:28:24;2;2;1
55549;PMS7003;41397;49.972;18.944;2022-09-16T16:31:27;6;6;5
55549;PMS7003;41397;49.972;18.944;2022-09-16T16:34:32;4;4;3
55549;PMS7003;41397;49.972;18.944;2022-09-16T16:37:35;3;3;2
55549;PMS7003;41397;49.972;18.944;2022-09-16T16:40:37;4;4;3
55549;PMS7003;41397;49.972;18.944;2022-09-16T16:43:39;2;2;2
55549;PMS7003;41397;49.972;18.944;2022-09-16T16:46:40;3;3;3
55549;PMS7003;41397;49.972;18.944;2022-09-16T16:49:42;9;9;7
55549;PMS7003;41397;49.972;18.944;2022-09-16T16:52:44;4;4;3
55549;PMS7003;41397;49.972;18.944;2022-09-16T16:55:52;3;3;3
55549;PMS7003;41397;49.972;18.944;2022-09-16T16:58:54;4;4;4
55549;PMS7003;41397;49.972;18.944;2022-09-16T17:01:56;1;1;1
55549;PMS7003;41397;49.972;18.944;2022-09-16T17:04:58;2;2;1
55549;PMS7003;41397;49.972;18.944;2022-09-16T17:07:59;6;6;4
55549;PMS7003;41397;49.972;18.944;2022-09-16T17:11:07;5;5;4
55549;PMS7003;41397;49.972;18.944;2022-09-16T17:14:14;5;5;5
55549;PMS7003;41397;49.972;18.944;2022-09-16T17:17:15;5;5;5
55549;PMS7003;41397;49.972;18.944;2022-09-16T17:20:17;5;5;4
55549;PMS7003;41397;49.972;18.944;2022-09-16T17:23:19;6;6;5
55549;PMS7003;41397;49.972;18.944;2022-09-16T17:26:20;5;5;4
55549;PMS7003;41397;49.972;18.944;2022-09-16T17:29:23;7;6;3
55549;PMS7003;41397;49.972;18.944;2022-09-16T17:32:25;5;5;4
55549;PMS7003;41397;49.972;18.944;2022-09-16T17:35:26;7;7;6
55549;PMS7003;41397;49.972;18.944;2022-09-16T17:38:28;5;5;4
55549;PMS7003;41397;49.972;18.944;2022-09-16T17:41:30;9;9;8
55549;PMS7003;41397;49.972;18.944;2022-09-16T17:44:32;2;2;1
55549;PMS7003;41397;49.972;18.944;2022-09-16T17:47:33;9;9;7
55549;PMS7003;41397;49.972;18.944;2022-09-16T17:50:36;10;10;8
55549;PMS7003;41397;49.972;18.944;2022-09-16T17:53:38;10;10;9
55549;PMS7003;41397;49.972;18.944;2022-09-16T17:56:40;7;7;4
55549;PMS7003;41397;49.972;18.944;2022-09-16T17:59:52;11;11;9
55549;PMS7003;41397;49.972;18.944;2022-09-16T18:02:54;10;10;8
55549;PMS7003;41397;49.972;18.944;2022-09-16T18:06:01;9;9;7
55549;PMS7003;41397;49.972;18.944;2022-09-16T18:09:07;8;8;5
55549;PMS7003;41397;49.972;18.944;2022-09-16T18:12:09;8;8;6
55549;PMS7003;41397;49.972;18.944;2022-09-16T18:15:10;9;9;7
55549;PMS7003;41397;49.972;18.944;2022-09-16T18:18:12;10;10;8
55549;PMS7003;41397;49.972;18.944;2022-09-16T18:21:16;4;4;4
55549;PMS7003;41397;49.972;18.944;2022-09-16T18:24:19;5;5;4
55549;PMS7003;41397;49.972;18.944;2022-09-16T18:27:26;8;8;6
55549;PMS7003;41397;49.972;18.944;2022-09-16T18:30:27;8;8;7
55549;PMS7003;41397;49.972;18.944;2022-09-16T18:33:28;12;8;6
55549;PMS7003;41397;49.972;18.944;2022-09-16T18:36:30;10;10;6
55549;PMS7003;41397;49.972;18.944;2022-09-16T18:39:34;5;5;4
55549;PMS7003;41397;49.972;18.944;2022-09-16T18:42:36;5;5;5
55549;PMS7003;41397;49.972;18.944;2022-09-16T18:45:37;7;7;5
55549;PMS7003;41397;49.972;18.944;2022-09-16T18:48:39;5;5;4
55549;PMS7003;41397;49.972;18.944;2022-09-16T18:51:46;5;5;4
55549;PMS7003;41397;49.972;18.944;2022-09-16T18:54:49;7;7;6
55549;PMS7003;41397;49.972;18.944;2022-09-16T18:57:50;6;6;5
55549;PMS7003;41397;49.972;18.944;2022-09-16T19:00:51;8;8;7
55549;PMS7003;41397;49.972;18.944;2022-09-16T19:03:54;5;5;5
55549;PMS7003;41397;49.972;18.944;2022-09-16T19:06:57;4;4;3
55549;PMS7003;41397;49.972;18.944;2022-09-16T19:10:07;7;7;5
55549;PMS7003;41397;49.972;18.944;2022-09-16T19:13:08;6;6;5
55549;PMS7003;41397;49.972;18.944;2022-09-16T19:16:10;6;6;5
55549;PMS7003;41397;49.972;18.944;2022-09-16T19:19:13;9;9;6
55549;PMS7003;41397;49.972;18.944;2022-09-16T19:22:16;13;11;8
55549;PMS7003;41397;49.972;18.944;2022-09-16T19:25:17;8;8;7
55549;PMS7003;41397;49.972;18.944;2022-09-16T19:28:19;7;7;6
55549;PMS7003;41397;49.972;18.944;2022-09-16T19:31:20;9;9;6
55549;PMS7003;41397;49.972;18.944;2022-09-16T19:34:22;11;11;8
55549;PMS7003;41397;49.972;18.944;2022-09-16T19:37:24;11;11;7
55549;PMS7003;41397;49.972;18.944;2022-09-16T19:40:26;10;10;10
55549;PMS7003;41397;49.972;18.944;2022-09-16T19:43:29;11;11;9
55549;PMS7003;41397;49.972;18.944;2022-09-16T19:46:34;6;6;5
55549;PMS7003;41397;49.972;18.944;2022-09-16T19:49:38;14;14;11
55549;PMS7003;41397;49.972;18.944;2022-09-16T19:52:39;14;11;10
55549;PMS7003;41397;49.972;18.944;2022-09-16T19:55:46;8;8;7
55549;PMS7003;41397;49.972;18.944;2022-09-16T19:58:48;10;10;9
55549;PMS7003;41397;49.972;18.944;2022-09-16T20:01:51;12;12;9
55549;PMS7003;41397;49.972;18.944;2022-09-16T20:04:52;10;10;7
55549;PMS7003;41397;49.972;18.944;2022-09-16T20:07:55;7;7;6
55549;PMS7003;41397;49.972;18.944;2022-09-16T20:11:00;15;15;10
55549;PMS7003;41397;49.972;18.944;2022-09-16T20:14:06;13;13;9
55549;PMS7003;41397;49.972;18.944;2022-09-16T20:17:11;9;9;8
55549;PMS7003;41397;49.972;18.944;2022-09-16T20:20:12;11;11;9
55549;PMS7003;41397;49.972;18.944;2022-09-16T20:23:14;12;12;10
55549;PMS7003;41397;49.972;18.944;2022-09-16T20:26:16;19;15;11
55549;PMS7003;41397;49.972;18.944;2022-09-16T20:29:21;14;14;9
55549;PMS7003;41397;49.972;18.944;2022-09-16T20:32:23;15;15;10
55549;PMS7003;41397;49.972;18.944;2022-09-16T20:35:31;16;16;12
55549;PMS7003;41397;49.972;18.944;2022-09-16T20:38:34;17;17;13
55549;PMS7003;41397;49.972;18.944;2022-09-16T20:41:38;12;12;9
55549;PMS7003;41397;49.972;18.944;2022-09-16T20:44:40;13;13;9
55549;PMS7003;41397;49.972;18.944;2022-09-16T20:47:41;10;10;8
55549;PMS7003;41397;49.972;18.944;2022-09-16T20:50:42;13;13;11
55549;PMS7003;41397;49.972;18.944;2022-09-16T20:53:49;15;15;10
55549;PMS7003;41397;49.972;18.944;2022-09-16T20:56:51;17;17;12
55549;PMS7003;41397;49.972;18.944;2022-09-16T20:59:53;14;14;10
55549;PMS7003;41397;49.972;18.944;2022-09-16T21:02:55;11;11;9
55549;PMS7003;41397;49.972;18.944;2022-09-16T21:06:04;11;11;8
55549;PMS7003;41397;49.972;18.944;2022-09-16T21:09:11;14;14;9
55549;PMS7003;41397;49.972;18.944;2022-09-16T21:12:14;11;11;8
55549;PMS7003;41397;49.972;18.944;2022-09-16T21:15:17;13;12;10
55549;PMS7003;41397;49.972;18.944;2022-09-16T21:18:18;8;8;7
55549;PMS7003;41397;49.972;18.944;2022-09-16T21:21:19;12;12;8
55549;PMS7003;41397;49.972;18.944;2022-09-16T21:24:22;8;8;7
55549;PMS7003;41397;49.972;18.944;2022-09-16T21:27:24;10;10;9
55549;PMS7003;41397;49.972;18.944;2022-09-16T21:30:26;9;9;6
55549;PMS7003;41397;49.972;18.944;2022-09-16T21:33:30;9;9;6
55549;PMS7003;41397;49.972;18.944;2022-09-16T21:36:32;8;8;6
55549;PMS7003;41397;49.972;18.944;2022-09-16T21:39:39;11;11;8
55549;PMS7003;41397;49.972;18.944;2022-09-16T21:42:46;12;12;9
55549;PMS7003;41397;49.972;18.944;2022-09-16T21:45:47;9;9;8
55549;PMS7003;41397;49.972;18.944;2022-09-16T21:48:49;12;12;9
55549;PMS7003;41397;49.972;18.944;2022-09-16T21:51:51;10;10;8
55549;PMS7003;41397;49.972;18.944;2022-09-16T21:54:54;16;13;7
55549;PMS7003;41397;49.972;18.944;2022-09-16T21:57:55;11;11;9
55549;PMS7003;41397;49.972;18.944;2022-09-16T22:04:11;12;12;10
55549;PMS7003;41397;49.972;18.944;2022-09-16T22:07:15;8;8;7
55549;PMS7003;41397;49.972;18.944;2022-09-16T22:10:20;13;11;9
55549;PMS7003;41397;49.972;18.944;2022-09-16T22:13:22;10;10;6
55549;PMS7003;41397;49.972;18.944;2022-09-16T22:16:24;12;12;9
55549;PMS7003;41397;49.972;18.944;2022-09-16T22:19:28;15;14;9
55549;PMS7003;41397;49.972;18.944;2022-09-16T22:22:29;7;7;5
55549;PMS7003;41397;49.972;18.944;2022-09-16T22:25:33;10;10;9
55549;PMS7003;41397;49.972;18.944;2022-09-16T22:28:37;8;8;6
55549;PMS7003;41397;49.972;18.944;2022-09-16T22:31:39;13;13;10
55549;PMS7003;41397;49.972;18.944;2022-09-16T22:34:41;14;14;10
55549;PMS7003;41397;49.972;18.944;2022-09-16T22:37:42;6;6;5
55549;PMS7003;41397;49.972;18.944;2022-09-16T22:40:44;8;8;6
55549;PMS7003;41397;49.972;18.944;2022-09-16T22:43:46;7;7;6
55549;PMS7003;41397;49.972;18.944;2022-09-16T22:46:48;11;11;7
55549;PMS7003;41397;49.972;18.944;2022-09-16T22:49:49;10;10;8
55549;PMS7003;41397;49.972;18.944;2022-09-16T22:52:51;7;7;4
55549;PMS7003;41397;49.972;18.944;2022-09-16T22:55:55;5;5;4
55549;PMS7003;41397;49.972;18.944;2022-09-16T22:59:02;7;7;7
55549;PMS7003;41397;49.972;18.944;2022-09-16T23:02:10;10;8;6
55549;PMS7003;41397;49.972;18.944;2022-09-16T23:05:12;9;8;6
55549;PMS7003;41397;49.972;18.944;2022-09-16T23:10:23;11;11;9
55549;PMS7003;41397;49.972;18.944;2022-09-16T23:13:24;9;9;6
55549;PMS7003;41397;49.972;18.944;2022-09-16T23:16:28;11;11;9
55549;PMS7003;41397;49.972;18.944;2022-09-16T23:19:31;7;7;5
55549;PMS7003;41397;49.972;18.944;2022-09-16T23:22:33;5;5;4
55549;PMS7003;41397;49.972;18.944;2022-09-16T23:25:34;9;9;6
55549;PMS7003;41397;49.972;18.944;2022-09-16T23:28:36;9;9;8
55549;PMS7003;41397;49.972;18.944;2022-09-16T23:31:39;6;6;6